Time;durP1;ratioP1;P1;durP2;ratioP2;P2;SDS_P1;SDS_P2;PMS_P1;PMS_P2;Temp;Humidity;BMP_temperature;BMP_pressure;BME280_temperature;BME280_humidity;BME280_pressure;Samples;Min_cycle;Max_cycle;Signal;HPM_P1;HPM_P2
2022/09/01 00:02:27;;;;;;;0.30;0.20;;;14.70;99.90;;;;;;5080532;28;20049;-82
2022/09/01 00:05:20;;;;;;;0.25;0.10;;;14.70;99.90;;;;;;5074504;28;20056;-82
2022/09/01 00:08:19;;;;;;;0.50;0.25;;;14.70;99.90;;;;;;5083330;28;20369;-83
2022/09/01 00:11:13;;;;;;;0.20;0.20;;;14.70;99.90;;;;;;5096506;28;20048;-82
2022/09/01 00:14:03;;;;;;;0.22;0.22;;;14.70;99.90;;;;;;5090741;28;20056;-82
2022/09/01 00:16:58;;;;;;;0.35;0.30;;;14.70;99.90;;;;;;5072474;28;20078;-82
2022/09/01 00:19:38;;;;;;;0.30;0.20;;;14.70;99.90;;;;;;5061994;28;20040;-83
2022/09/01 00:22:29;;;;;;;0.98;0.30;;;14.70;99.90;;;;;;5076479;28;20052;-82
2022/09/01 00:25:20;;;;;;;1.10;0.20;;;14.70;99.90;;;;;;5076475;28;20048;-83
2022/09/01 00:28:10;;;;;;;0.32;0.20;;;14.70;99.90;;;;;;5077645;28;20123;-83
2022/09/01 00:34:35;;;;;;;0.20;0.10;;;14.60;99.90;;;;;;5077467;28;20111;-81
2022/09/01 00:37:22;;;;;;;0.20;0.20;;;14.60;99.90;;;;;;5077520;28;20403;-82
2022/09/01 00:39:51;;;;;;;0.45;0.20;;;14.60;99.90;;;;;;5077719;28;20088;-82
2022/09/01 00:42:42;;;;;;;0.35;0.17;;;14.60;99.90;;;;;;5096141;28;20044;-83
2022/09/01 00:45:43;;;;;;;0.20;0.20;;;14.60;99.90;;;;;;5013749;28;20060;-82
2022/09/01 00:48:35;;;;;;;0.38;0.20;;;14.50;99.90;;;;;;5004311;28;20046;-83
2022/09/01 00:51:29;;;;;;;0.28;0.20;;;14.50;99.90;;;;;;4995584;28;20042;-83
2022/09/01 00:54:13;;;;;;;0.10;0.10;;;14.50;99.90;;;;;;4978474;28;20054;-82
2022/09/01 00:57:04;;;;;;;0.28;0.20;;;14.50;99.90;;;;;;4989089;28;20191;-83
2022/09/01 00:59:58;;;;;;;0.20;0.20;;;14.50;99.90;;;;;;4994929;28;20082;-83
2022/09/01 01:02:55;;;;;;;0.13;0.13;;;14.60;99.90;;;;;;4988214;28;20098;-82
2022/09/01 01:05:52;;;;;;;0.30;0.20;;;14.50;99.90;;;;;;4986456;28;20255;-82
2022/09/01 01:08:59;;;;;;;0.25;0.20;;;14.60;99.90;;;;;;4995406;28;20054;-83
2022/09/01 01:11:38;;;;;;;0.22;0.20;;;14.50;99.90;;;;;;4994265;28;20054;-82
2022/09/01 01:18:02;;;;;;;0.40;0.22;;;14.60;99.90;;;;;;4995357;28;20410;-83
2022/09/01 01:24:33;;;;;;;0.70;0.25;;;14.60;99.90;;;;;;5075127;28;20044;-84
2022/09/01 01:27:21;;;;;;;0.30;0.20;;;14.60;99.90;;;;;;5072445;28;20049;-82
2022/09/01 01:30:02;;;;;;;0.38;0.20;;;14.70;99.90;;;;;;5075974;28;20128;-82
2022/09/01 01:32:50;;;;;;;0.20;0.10;;;14.70;99.90;;;;;;5039570;28;20048;-84
2022/09/01 01:39:02;;;;;;;0.20;0.20;;;14.70;99.90;;;;;;5011508;28;20077;-83
2022/09/01 01:41:40;;;;;;;0.45;0.20;;;14.70;99.90;;;;;;5032400;28;20037;-84
2022/09/01 01:44:27;;;;;;;0.30;0.30;;;14.80;99.90;;;;;;5032539;28;20045;-82
2022/09/01 01:47:21;;;;;;;0.50;0.30;;;14.80;99.90;;;;;;5013171;28;20052;-82
2022/09/01 01:50:11;;;;;;;0.20;0.20;;;14.80;99.90;;;;;;5014293;28;20054;-83
2022/09/01 01:53:03;;;;;;;0.25;0.20;;;14.80;99.90;;;;;;5032094;28;20045;-83
2022/09/01 01:56:04;;;;;;;;;;;;;;;;;;;;;
2022/09/01 01:58:55;;;;;;;0.20;0.20;;;14.90;99.90;;;;;;4982552;28;20161;-82
2022/09/01 02:01:48;;;;;;;;;;;14.90;99.90;;;;;;5030541;28;20053;-82
2022/09/01 02:04:33;;;;;;;0.20;0.20;;;14.90;99.90;;;;;;5020200;28;19920;-81
2022/09/01 02:07:15;;;;;;;1.65;0.25;;;14.90;99.90;;;;;;5012338;28;20169;-83
2022/09/01 02:10:01;;;;;;;0.30;0.20;;;14.90;99.90;;;;;;5012917;28;20122;-82
2022/09/01 02:12:36;;;;;;;0.30;0.22;;;14.90;99.90;;;;;;5013898;28;20173;-82
2022/09/01 02:15:26;;;;;;;;;;;;;;;;;;;;;
2022/09/01 02:18:10;;;;;;;0.43;0.20;;;15.00;99.90;;;;;;5075428;28;20071;-82
2022/09/01 02:21:09;;;;;;;0.40;0.30;;;15.00;99.90;;;;;;5092128;28;20036;-82
2022/09/01 02:24:14;;;;;;;0.25;0.20;;;14.90;99.90;;;;;;5075953;28;20051;-83
2022/09/01 02:26:59;;;;;;;0.50;0.30;;;15.00;99.90;;;;;;5072949;28;20088;-81
2022/09/01 02:29:54;;;;;;;0.73;0.30;;;15.00;99.90;;;;;;5091445;28;20113;-82
2022/09/01 02:32:57;;;;;;;0.82;0.20;;;15.00;99.90;;;;;;5092403;28;20060;-84
2022/09/01 02:35:40;;;;;;;0.40;0.28;;;15.00;99.90;;;;;;5069489;28;20052;-82
2022/09/01 02:41:56;;;;;;;0.50;0.20;;;15.00;99.90;;;;;;5067550;28;20474;-82
2022/09/01 02:44:45;;;;;;;0.20;0.20;;;15.00;99.90;;;;;;5068163;28;20523;-84
2022/09/01 02:47:44;;;;;;;0.20;0.20;;;15.00;99.90;;;;;;5073853;28;20125;-83
2022/09/01 02:50:26;;;;;;;0.50;0.30;;;15.00;99.90;;;;;;5091664;28;20047;-84
2022/09/01 02:53:14;;;;;;;0.55;0.30;;;15.00;99.90;;;;;;5066899;28;20049;-83
2022/09/01 02:55:52;;;;;;;0.68;0.20;;;15.00;99.90;;;;;;5038231;28;20070;-83
2022/09/01 02:58:49;;;;;;;0.40;0.10;;;15.00;99.90;;;;;;5073486;28;20040;-82
2022/09/01 03:01:43;;;;;;;0.35;0.20;;;15.00;99.90;;;;;;5093324;28;20476;-84
2022/09/01 03:04:54;;;;;;;0.43;0.30;;;15.00;99.90;;;;;;5010910;28;20104;-86
2022/09/01 03:07:31;;;;;;;0.47;0.25;;;14.90;99.90;;;;;;4983825;28;20050;-82
2022/09/01 03:10:23;;;;;;;0.52;0.28;;;14.90;99.90;;;;;;4992224;28;20102;-83
2022/09/01 03:13:13;;;;;;;0.32;0.30;;;14.90;99.90;;;;;;5003371;28;20050;-82
2022/09/01 03:16:03;;;;;;;0.10;0.10;;;14.90;99.90;;;;;;5011087;28;20526;-82
2022/09/01 03:18:58;;;;;;;0.17;0.17;;;14.90;99.90;;;;;;4984406;28;20108;-82
2022/09/01 03:21:39;;;;;;;0.22;0.20;;;14.80;99.90;;;;;;5010076;28;20069;-82
2022/09/01 03:25:03;;;;;;;0.35;0.30;;;14.80;99.90;;;;;;5010514;28;20045;-83
2022/09/01 03:27:37;;;;;;;0.55;0.20;;;14.70;99.90;;;;;;4983446;28;20385;-82
2022/09/01 03:30:28;;;;;;;0.10;0.10;;;14.70;99.90;;;;;;4985734;28;20045;-82
2022/09/01 03:33:17;;;;;;;0.63;0.30;;;14.70;99.90;;;;;;5009846;28;20037;-84
2022/09/01 03:36:06;;;;;;;0.30;0.20;;;14.70;99.90;;;;;;4987587;28;20058;-82
2022/09/01 03:38:47;;;;;;;0.30;0.20;;;14.70;99.90;;;;;;4983356;28;20545;-82
2022/09/01 03:41:47;;;;;;;0.22;0.22;;;14.60;99.90;;;;;;5038930;28;20594;-81
2022/09/01 03:44:39;;;;;;;0.32;0.20;;;14.60;99.90;;;;;;5073017;28;20078;-82
2022/09/01 03:47:38;;;;;;;0.30;0.30;;;14.60;99.90;;;;;;5072958;28;20076;-82
2022/09/01 03:50:27;;;;;;;1.08;0.20;;;14.50;99.90;;;;;;5074601;28;20497;-82
2022/09/01 03:52:59;;;;;;;;;;;14.50;99.90;;;;;;5049013;28;20047;-82
2022/09/01 03:55:53;;;;;;;0.30;0.30;;;14.40;99.90;;;;;;5065371;28;20421;-82
2022/09/01 03:58:48;;;;;;;0.50;0.10;;;14.40;99.90;;;;;;5072672;28;20044;-82
2022/09/01 04:01:42;;;;;;;0.10;0.10;;;14.40;99.90;;;;;;5075080;28;20114;-83
2022/09/01 04:04:31;;;;;;;0.85;0.40;;;14.30;99.90;;;;;;5075692;28;20127;-82
2022/09/01 04:08:18;;;;;;;0.50;0.38;;;14.30;99.90;;;;;;5072374;28;20049;-83
2022/09/01 04:10:59;;;;;;;0.38;0.20;;;14.20;99.90;;;;;;5044764;28;20060;-81
2022/09/01 04:13:59;;;;;;;0.88;0.40;;;14.20;99.90;;;;;;5068310;28;20052;-82
2022/09/01 04:20:04;;;;;;;0.60;0.20;;;14.10;99.90;;;;;;5052586;28;20045;-83
2022/09/01 04:23:09;;;;;;;;;;;;;;;;;;;;;
2022/09/01 04:26:07;;;;;;;0.50;0.30;;;13.90;99.90;;;;;;5044472;28;20041;-82
2022/09/01 04:32:58;;;;;;;;;;;;;;;;;;;;;
2022/09/01 04:35:39;;;;;;;0.63;0.30;;;13.70;99.90;;;;;;5035375;28;20080;-81
2022/09/01 04:38:31;;;;;;;0.75;0.38;;;13.80;99.90;;;;;;5052446;28;20041;-82
2022/09/01 04:41:15;;;;;;;0.43;0.30;;;13.70;99.90;;;;;;5028288;28;20405;-86
2022/09/01 04:43:55;;;;;;;0.47;0.40;;;13.70;99.90;;;;;;5051787;28;20045;-83
2022/09/01 04:46:34;;;;;;;0.77;0.30;;;13.60;99.90;;;;;;5048094;28;20477;-84
2022/09/01 04:49:18;;;;;;;0.70;0.43;;;13.60;99.90;;;;;;5071034;28;20044;-83
2022/09/01 04:55:54;;;;;;;0.63;0.40;;;13.50;99.90;;;;;;5055935;28;20528;-85
2022/09/01 04:58:32;;;;;;;0.30;0.30;;;13.40;99.90;;;;;;5074656;28;20094;-84
2022/09/01 05:01:19;;;;;;;1.48;0.40;;;13.50;99.90;;;;;;5063496;28;20029;-84
2022/09/01 05:04:00;;;;;;;1.83;0.95;;;13.40;99.90;;;;;;5044937;28;20197;-83
2022/09/01 05:06:42;;;;;;;2.50;0.35;;;13.40;99.90;;;;;;5055444;28;20060;-82
2022/09/01 05:09:18;;;;;;;0.43;0.30;;;13.40;99.90;;;;;;5048165;28;20029;-83
2022/09/01 05:12:00;;;;;;;0.30;0.28;;;13.40;99.90;;;;;;5056777;28;20132;-83
2022/09/01 05:14:42;;;;;;;0.40;0.25;;;13.40;99.90;;;;;;5074842;28;20044;-85
2022/09/01 05:17:17;;;;;;;0.40;0.20;;;13.40;99.90;;;;;;5071835;28;20115;-82
2022/09/01 05:19:59;;;;;;;0.43;0.30;;;13.40;99.90;;;;;;5056832;28;20382;-83
2022/09/01 05:22:51;;;;;;;0.30;0.20;;;13.40;99.90;;;;;;5049249;28;20045;-84
2022/09/01 05:25:40;;;;;;;0.30;0.20;;;13.40;99.90;;;;;;5047272;28;20053;-85
2022/09/01 05:28:31;;;;;;;0.50;0.40;;;13.40;99.90;;;;;;5062046;28;20041;-84
2022/09/01 05:31:04;;;;;;;0.25;0.25;;;13.40;99.90;;;;;;5054536;28;20041;-84
2022/09/01 05:33:47;;;;;;;0.15;0.10;;;13.50;99.90;;;;;;4979821;28;20061;-86
2022/09/01 05:36:16;;;;;;;0.52;0.30;;;13.40;99.90;;;;;;5036974;28;20494;-85
2022/09/01 05:39:00;;;;;;;0.85;0.28;;;13.50;99.90;;;;;;5074501;28;20123;-84
2022/09/01 05:41:35;;;;;;;0.65;0.40;;;13.50;99.90;;;;;;5072001;28;20045;-84
2022/09/01 05:44:17;;;;;;;0.38;0.20;;;13.50;99.90;;;;;;5055302;28;20041;-84
2022/09/01 05:46:52;;;;;;;0.30;0.25;;;13.50;99.90;;;;;;5036184;28;20055;-86
2022/09/01 05:49:37;;;;;;;0.45;0.28;;;13.50;99.90;;;;;;5055045;28;20053;-84
2022/09/01 05:52:31;;;;;;;0.20;0.20;;;13.60;99.90;;;;;;5056070;28;20037;-86
2022/09/01 05:55:26;;;;;;;1.35;0.47;;;13.70;99.90;;;;;;5056906;28;20033;-86
2022/09/01 05:58:19;;;;;;;0.65;0.38;;;13.70;99.90;;;;;;5060887;28;20087;-91
2022/09/01 06:00:56;;;;;;;0.35;0.30;;;13.80;99.90;;;;;;5071920;28;20055;-87
2022/09/01 06:03:40;;;;;;;0.73;0.30;;;13.80;99.90;;;;;;5064926;28;20055;-86
2022/09/01 06:06:21;;;;;;;0.28;0.20;;;13.90;99.90;;;;;;5046562;28;20045;-88
2022/09/01 06:09:01;;;;;;;0.30;0.30;;;14.00;99.90;;;;;;5063996;28;20044;-85
2022/09/01 06:11:41;;;;;;;;;;;;;;;;;;;;;
2022/09/01 06:14:17;;;;;;;2.20;0.20;;;14.20;99.90;;;;;;5055861;28;20068;-86
2022/09/01 06:16:50;;;;;;;1.10;0.20;;;14.40;99.90;;;;;;5063189;28;20597;-88
2022/09/01 06:19:32;;;;;;;0.50;0.30;;;14.50;99.90;;;;;;5071240;28;20036;-86
2022/09/01 06:22:15;;;;;;;0.30;0.30;;;14.70;99.90;;;;;;5072250;28;20045;-89
2022/09/01 06:25:07;;;;;;;0.40;0.30;;;14.80;99.90;;;;;;5073684;28;20049;-88
2022/09/01 06:28:03;;;;;;;0.35;0.22;;;14.90;99.90;;;;;;5056178;28;20044;-88
2022/09/01 06:30:50;;;;;;;0.20;0.20;;;15.00;99.90;;;;;;5071296;28;20044;-86
2022/09/01 06:33:31;;;;;;;0.20;0.20;;;15.10;99.90;;;;;;5072932;28;20052;-84
2022/09/01 06:36:22;;;;;;;0.50;0.20;;;15.20;99.90;;;;;;5066533;28;20454;-87
2022/09/01 06:42:52;;;;;;;0.30;0.30;;;15.40;99.90;;;;;;5078975;28;20082;-87
2022/09/01 06:45:32;;;;;;;0.20;0.20;;;15.50;99.90;;;;;;5058880;28;20040;-89
2022/09/01 06:48:05;;;;;;;0.73;0.20;;;15.60;99.90;;;;;;5065718;28;20044;-91
2022/09/01 06:51:02;;;;;;;0.20;0.20;;;15.60;99.90;;;;;;5059321;28;20045;-90
2022/09/01 06:53:55;;;;;;;0.10;0.10;;;15.80;99.90;;;;;;5037718;28;20041;-91
2022/09/01 06:56:34;;;;;;;0.55;0.30;;;15.90;99.90;;;;;;5054556;28;20043;-90
2022/09/01 06:59:20;;;;;;;0.20;0.20;;;15.90;99.90;;;;;;5047493;28;20037;-91
2022/09/01 07:02:03;;;;;;;0.30;0.28;;;16.00;99.90;;;;;;5037237;28;20100;-90
2022/09/01 07:04:50;;;;;;;0.50;0.30;;;16.20;99.90;;;;;;5067993;28;20915;-83
2022/09/01 07:07:36;;;;;;;0.57;0.30;;;16.30;99.90;;;;;;5049539;28;20049;-90
2022/09/01 07:10:27;;;;;;;0.82;0.30;;;16.40;99.90;;;;;;5054842;28;20052;-91
2022/09/01 07:13:08;;;;;;;0.40;0.32;;;16.50;99.90;;;;;;5037205;28;20073;-86
2022/09/01 07:15:47;;;;;;;0.43;0.35;;;16.60;99.90;;;;;;5047917;28;20045;-89
2022/09/01 07:18:29;;;;;;;1.70;0.40;;;16.70;99.90;;;;;;5053187;28;20134;-91
2022/09/01 07:21:19;;;;;;;0.47;0.30;;;16.80;99.90;;;;;;5053483;28;20129;-88
2022/09/01 07:31:39;;;;;;;0.55;0.28;;;16.80;99.90;;;;;;5049593;28;20444;-87
2022/09/01 07:34:27;;;;;;;0.30;0.30;;;16.90;99.90;;;;;;5034545;28;20038;-85
2022/09/01 07:37:11;;;;;;;0.40;0.20;;;16.90;99.90;;;;;;5013489;28;20083;-90
2022/09/01 07:39:47;;;;;;;0.38;0.30;;;16.90;99.90;;;;;;5049869;28;20056;-86
2022/09/01 07:42:42;;;;;;;0.50;0.35;;;17.00;99.90;;;;;;5052617;28;20448;-84
2022/09/01 07:45:26;;;;;;;0.47;0.40;;;17.10;99.90;;;;;;5053417;28;20041;-87
2022/09/01 07:48:02;;;;;;;0.60;0.40;;;17.20;99.90;;;;;;5053430;28;20112;-87
2022/09/01 07:50:48;;;;;;;0.55;0.30;;;17.40;99.90;;;;;;5052150;28;20132;-87
2022/09/01 07:53:35;;;;;;;0.60;0.38;;;17.60;99.90;;;;;;5048293;28;20037;-86
2022/09/01 07:56:12;;;;;;;1.65;0.50;;;17.70;99.90;;;;;;5026894;28;20049;-87
2022/09/01 07:58:45;;;;;;;5.43;0.60;;;17.80;99.90;;;;;;5044961;28;20130;-84
2022/09/01 08:01:25;;;;;;;1.75;0.38;;;18.00;99.90;;;;;;5053952;28;20039;-86
2022/09/01 08:04:22;;;;;;;;;;;;;;;;;;;;;
2022/09/01 08:07:15;;;;;;;0.45;0.30;;;18.50;99.90;;;;;;5051836;28;20052;-84
2022/09/01 08:09:59;;;;;;;1.65;0.40;;;18.60;99.90;;;;;;5039725;28;20048;-86
2022/09/01 08:16:31;;;;;;;0.77;0.40;;;18.90;99.90;;;;;;5056637;28;20065;-86
2022/09/01 08:19:00;;;;;;;0.70;0.40;;;19.20;99.90;;;;;;5034584;28;20056;-85
2022/09/01 08:21:31;;;;;;;1.63;0.60;;;19.30;99.90;;;;;;5057543;28;20036;-87
2022/09/01 08:23:57;;;;;;;2.13;0.50;;;19.50;99.90;;;;;;5056434;28;20056;-85
2022/09/01 08:26:25;;;;;;;1.00;0.40;;;19.70;99.90;;;;;;5053165;28;20041;-86
2022/09/01 08:28:52;;;;;;;1.48;0.57;;;19.90;99.90;;;;;;5065270;28;20094;-84
2022/09/01 08:31:19;;;;;;;1.08;0.40;;;19.90;99.90;;;;;;5069436;28;20124;-86
2022/09/01 08:33:47;;;;;;;2.05;0.40;;;20.00;99.90;;;;;;5077320;28;20044;-86
2022/09/01 08:44:15;;;;;;;0.93;0.40;;;20.50;99.90;;;;;;5050774;28;20036;-85
2022/09/01 08:46:46;;;;;;;0.77;0.30;;;20.60;99.90;;;;;;4990807;28;20046;-86
2022/09/01 08:49:23;;;;;;;0.73;0.50;;;20.50;99.90;;;;;;5008822;28;20050;-87
2022/09/01 08:51:54;;;;;;;1.27;0.47;;;20.40;99.90;;;;;;5006997;28;20065;-85
2022/09/01 08:54:24;;;;;;;0.88;0.40;;;20.50;99.90;;;;;;4983205;28;20042;-86
2022/09/01 08:57:00;;;;;;;0.88;0.32;;;20.50;99.90;;;;;;4979680;28;20046;-84
2022/09/01 08:59:28;;;;;;;2.13;0.30;;;20.40;99.90;;;;;;4985536;28;20050;-83
2022/09/01 09:02:02;;;;;;;0.73;0.40;;;20.50;99.90;;;;;;4986293;28;20050;-83
2022/09/01 09:04:51;;;;;;;0.40;0.30;;;20.60;99.90;;;;;;4977815;28;20499;-82
2022/09/01 09:08:00;;;;;;;0.40;0.30;;;20.80;99.90;;;;;;4977073;28;20145;-82
2022/09/01 09:10:36;;;;;;;0.75;0.30;;;21.00;99.90;;;;;;4984519;28;20059;-83
2022/09/01 09:13:31;;;;;;;0.85;0.25;;;21.30;99.90;;;;;;4981232;28;20121;-83
2022/09/01 09:16:16;;;;;;;;;;;21.40;99.90;;;;;;4997269;28;20046;-83
2022/09/01 09:19:21;;;;;;;0.40;0.40;;;21.50;99.90;;;;;;4985340;28;20016;-84
2022/09/01 09:22:17;;;;;;;0.32;0.28;;;21.70;99.90;;;;;;4983655;28;20043;-81
2022/09/01 09:25:17;;;;;;;0.30;0.30;;;21.90;99.90;;;;;;5084394;28;20040;-84
2022/09/01 09:27:49;;;;;;;0.35;0.20;;;22.00;99.90;;;;;;5041451;28;20515;-82
2022/09/01 09:30:37;;;;;;;0.65;0.20;;;22.10;99.80;;;;;;5084317;28;20127;-82
2022/09/01 09:33:46;;;;;;;0.57;0.25;;;22.30;99.90;;;;;;5083368;28;20060;-88
2022/09/01 09:36:32;;;;;;;0.43;0.20;;;22.40;99.00;;;;;;4988182;28;20123;-82
2022/09/01 09:39:17;;;;;;;0.40;0.20;;;22.40;97.80;;;;;;4997731;28;20039;-81
2022/09/01 09:42:19;;;;;;;0.20;0.20;;;22.50;97.90;;;;;;5008055;28;20058;-83
2022/09/01 09:45:15;;;;;;;;;;;;;;;;;;;;;
2022/09/01 09:47:54;;;;;;;0.50;0.20;;;22.50;97.40;;;;;;4964902;28;20503;-81
2022/09/01 09:50:42;;;;;;;0.38;0.20;;;22.60;98.70;;;;;;5011214;28;20026;-84
2022/09/01 09:53:39;;;;;;;0.85;0.25;;;22.80;97.40;;;;;;5000502;28;20070;-82
2022/09/01 09:56:31;;;;;;;1.85;0.17;;;22.90;96.70;;;;;;5012270;28;20275;-83
2022/09/01 10:00:01;;;;;;;0.80;0.25;;;23.00;97.00;;;;;;4935758;29;20080;-86
2022/09/01 10:05:26;;;;;;;0.63;0.20;;;23.40;97.00;;;;;;5184531;22;20060;-85
2022/09/01 10:09:01;;;;;;;0.88;0.10;;;23.50;95.80;;;;;;5054848;28;20114;-87
2022/09/01 10:15:36;;;;;;;0.20;0.15;;;23.60;94.40;;;;;;5104061;22;20140;-89
2022/09/01 10:36:34;;;;;;;0.40;0.20;;;24.00;92.40;;;;;;5021407;28;20137;-86
2022/09/01 10:39:03;;;;;;;0.50;0.10;;;24.20;92.60;;;;;;5008120;28;20057;-86
2022/09/01 10:45:52;;;;;;;0.43;0.10;;;24.50;90.90;;;;;;4624443;26;20050;-86
2022/09/01 10:48:38;;;;;;;0.30;0.10;;;24.40;91.80;;;;;;4914304;29;20056;-85
2022/09/01 10:51:56;;;;;;;;;;;;;;;;;;;;;
2022/09/01 10:54:57;;;;;;;0.28;0.10;;;24.60;90.60;;;;;;4914715;29;20044;-85
2022/09/01 11:12:57;;;;;;;2.15;0.30;;;24.30;86.50;;;;;;4914921;29;20051;-86
2022/09/01 11:15:48;;;;;;;0.95;0.20;;;24.10;87.00;;;;;;4918991;28;20086;-84
2022/09/01 11:18:34;;;;;;;0.80;0.10;;;24.30;86.60;;;;;;4957302;28;20078;-84
2022/09/01 11:21:29;;;;;;;0.45;0.10;;;24.30;84.10;;;;;;4974105;28;20513;-86
2022/09/01 11:24:42;;;;;;;0.15;0.08;;;24.10;83.60;;;;;;4973032;28;20110;-86
2022/09/01 11:27:53;;;;;;;0.50;0.13;;;23.80;82.60;;;;;;4956943;28;20043;-85
2022/09/01 11:30:50;;;;;;;;;;;;;;;;;;;;;
2022/09/01 11:33:58;;;;;;;0.80;0.20;;;23.40;80.60;;;;;;4973629;28;20065;-85
2022/09/01 11:37:01;;;;;;;;;;;;;;;;;;;;;
2022/09/01 11:40:06;;;;;;;0.25;0.10;;;23.80;77.10;;;;;;4973658;28;20047;-85
2022/09/01 11:42:51;;;;;;;0.30;0.10;;;24.10;80.40;;;;;;4970844;28;20185;-84
2022/09/01 11:46:10;;;;;;;0.32;0.10;;;24.30;78.00;;;;;;4983873;28;20089;-85
2022/09/01 11:48:53;;;;;;;0.28;0.10;;;24.60;79.00;;;;;;5005304;28;20521;-86
2022/09/01 11:51:45;;;;;;;0.38;0.10;;;24.40;79.10;;;;;;4993470;28;20402;-86
2022/09/01 11:54:35;;;;;;;0.28;0.10;;;24.50;77.40;;;;;;4976209;28;20050;-87
2022/09/01 11:57:37;;;;;;;1.48;0.10;;;24.70;77.10;;;;;;4993080;28;20503;-87
2022/09/01 12:00:46;;;;;;;0.20;0.10;;;24.80;77.20;;;;;;4978181;28;20104;-83
2022/09/01 12:03:31;;;;;;;0.30;0.10;;;24.80;77.90;;;;;;4997934;28;20487;-83
2022/09/01 12:06:11;;;;;;;0.08;0.03;;;24.90;78.40;;;;;;4997728;28;20178;-85
2022/09/01 12:09:01;;;;;;;3.00;0.20;;;25.10;79.20;;;;;;4997315;28;20057;-85
2022/09/01 12:11:32;;;;;;;0.20;0.15;;;25.30;78.70;;;;;;4997818;28;20039;-84
2022/09/01 12:14:25;;;;;;;1.23;0.20;;;25.50;77.00;;;;;;4997542;28;20046;-83
2022/09/01 12:17:12;;;;;;;0.20;0.10;;;25.50;76.50;;;;;;4997431;28;20050;-82
2022/09/01 12:19:53;;;;;;;0.40;0.17;;;25.50;77.10;;;;;;4997640;28;20038;-82
2022/09/01 12:22:51;;;;;;;0.45;0.20;;;25.60;78.40;;;;;;4997308;28;20060;-80
2022/09/01 12:25:35;;;;;;;0.20;0.00;;;25.50;77.80;;;;;;4962955;28;20054;-81
2022/09/01 12:28:27;;;;;;;0.25;0.10;;;25.50;76.00;;;;;;4997484;28;20054;-84
2022/09/01 12:31:03;;;;;;;;;;;25.30;75.30;;;;;;4997511;28;20106;-82
2022/09/01 13:08:51;;;;;;;0.38;0.20;;;26.20;75.60;;;;;;4993543;28;20138;-84
2022/09/01 13:11:33;;;;;;;0.55;0.20;;;26.20;73.00;;;;;;4976232;28;20484;-83
2022/09/01 13:14:25;;;;;;;0.80;0.10;;;25.70;72.90;;;;;;4957835;28;20130;-81
2022/09/01 13:17:18;;;;;;;1.15;0.10;;;25.10;75.20;;;;;;4973750;28;20051;-82
2022/09/01 13:19:59;;;;;;;1.08;0.00;;;24.90;75.80;;;;;;4976436;28;20038;-82
2022/09/01 13:22:36;;;;;;;0.40;0.10;;;24.90;76.60;;;;;;4976744;28;20559;-83
2022/09/01 13:25:31;;;;;;;0.20;0.10;;;24.80;75.40;;;;;;4976707;28;20503;-82
2022/09/01 13:28:14;;;;;;;0.60;0.20;;;24.80;77.20;;;;;;4976987;28;20058;-81
2022/09/01 13:35:16;;;;;;;0.55;0.20;;;24.50;76.70;;;;;;4976842;28;20411;-81
2022/09/01 13:37:57;;;;;;;;;;;;;;;;;;;;;
2022/09/01 13:40:33;;;;;;;0.80;0.17;;;25.00;75.00;;;;;;4976243;28;20047;-82
2022/09/01 13:43:15;;;;;;;0.52;0.10;;;25.30;75.70;;;;;;4942152;28;20055;-82
2022/09/01 13:46:12;;;;;;;0.40;0.10;;;25.60;74.70;;;;;;4976527;28;20119;-81
2022/09/01 13:48:59;;;;;;;0.15;0.10;;;25.90;74.40;;;;;;4976162;28;21267;-81
2022/09/01 13:52:01;;;;;;;0.40;0.10;;;26.00;73.80;;;;;;4976317;28;20049;-81
2022/09/01 13:54:47;;;;;;;0.40;0.10;;;26.00;73.70;;;;;;4976395;28;20042;-84
2022/09/01 13:57:38;;;;;;;0.30;0.10;;;25.90;72.80;;;;;;4976292;28;20054;-83
2022/09/01 14:00:23;;;;;;;0.45;0.10;;;25.80;74.00;;;;;;4976500;28;20444;-82
2022/09/01 14:03:17;;;;;;;0.30;0.10;;;25.80;73.70;;;;;;4976183;28;20106;-82
2022/09/01 14:05:59;;;;;;;0.25;0.15;;;25.80;72.60;;;;;;4975075;28;20122;-82
2022/09/01 14:08:36;;;;;;;1.88;0.10;;;25.90;72.90;;;;;;4975856;28;20072;-81
2022/09/01 14:11:07;;;;;;;;;;;26.10;73.50;;;;;;4958532;28;20089;-83
2022/09/01 14:13:47;;;;;;;2.40;0.10;;;26.20;72.90;;;;;;4958842;28;19929;-83
2022/09/01 14:31:25;;;;;;;0.25;0.10;;;26.30;72.20;;;;;;4975992;28;20406;-82
2022/09/01 14:34:15;;;;;;;0.52;0.10;;;26.00;72.20;;;;;;4975836;28;20106;-83
2022/09/01 14:36:59;;;;;;;0.20;0.20;;;26.00;71.00;;;;;;4958191;28;20079;-83
2022/09/01 14:39:48;;;;;;;0.20;0.10;;;26.20;70.70;;;;;;4958601;28;20129;-82
2022/09/01 14:42:28;;;;;;;0.70;0.10;;;26.20;71.70;;;;;;4957636;28;20555;-83
2022/09/01 14:45:02;;;;;;;0.65;0.10;;;26.10;69.70;;;;;;4957392;28;20492;-82
2022/09/01 14:47:45;;;;;;;0.35;0.20;;;25.80;69.90;;;;;;4939059;29;20396;-82
2022/09/01 15:05:20;;;;;;;0.47;0.10;;;25.50;73.20;;;;;;4975016;28;20403;-82
2022/09/01 15:08:11;;;;;;;0.75;0.10;;;25.50;74.10;;;;;;4974694;28;20102;-83
2022/09/01 15:11:17;;;;;;;0.28;0.10;;;25.40;72.30;;;;;;4953352;28;20449;-85
2022/09/01 15:17:49;;;;;;;;;;;;;;;;;;;;;
2022/09/01 15:53:12;;;;;;;;;;;;;;;;;;;;;
2022/09/01 15:56:06;;;;;;;0.10;0.03;;;23.70;74.30;;;;;;4784680;29;20118;-85
2022/09/01 15:59:20;;;;;;;;;;;;;;;;;;;;;
2022/09/01 16:03:00;;;;;;;1.05;0.17;;;23.60;73.70;;;;;;4703877;30;20067;-86
2022/09/01 16:16:37;;;;;;;;;;;;;;;;;;;;;
2022/09/01 16:19:39;;;;;;;0.57;0.08;;;23.00;76.10;;;;;;4823016;29;20050;-87
2022/09/01 16:22:44;;;;;;;0.00;0.00;;;22.90;76.50;;;;;;4802609;24;20062;-87
2022/09/01 16:25:50;;;;;;;0.98;0.10;;;22.90;76.60;;;;;;4805102;24;20610;-86
2022/09/01 16:28:51;;;;;;;0.52;0.10;;;22.70;77.50;;;;;;4839707;29;20050;-85
2022/09/01 16:31:55;;;;;;;0.40;0.32;;;22.70;78.50;;;;;;4812061;29;20613;-86
2022/09/01 16:34:49;;;;;;;2.13;0.10;;;22.60;79.20;;;;;;4836590;29;20144;-86
2022/09/01 16:38:13;;;;;;;0.40;0.15;;;22.60;78.80;;;;;;4834021;29;20470;-85
2022/09/01 16:41:04;;;;;;;0.10;0.10;;;22.50;79.00;;;;;;4824653;29;20096;-87
2022/09/01 16:44:33;;;;;;;0.35;0.10;;;22.40;79.10;;;;;;4804371;29;20053;-86
2022/09/01 16:47:31;;;;;;;0.88;0.10;;;22.30;79.40;;;;;;4735512;30;20044;-87
2022/09/01 16:50:17;;;;;;;0.10;0.10;;;22.30;78.80;;;;;;4747191;30;20048;-87
2022/09/01 16:53:29;;;;;;;0.28;0.10;;;22.10;79.80;;;;;;4737835;30;20091;-86
2022/09/01 16:56:34;;;;;;;0.10;0.10;;;22.00;80.00;;;;;;4797019;24;20058;-86
2022/09/01 16:59:57;;;;;;;0.10;0.10;;;22.10;79.70;;;;;;4774018;30;20140;-88
2022/09/01 17:06:14;;;;;;;;;;;;;;;;;;;;;
2022/09/01 17:09:31;;;;;;;0.10;0.08;;;22.00;80.40;;;;;;4761307;29;20044;-86
2022/09/01 17:12:22;;;;;;;0.47;0.10;;;21.80;80.80;;;;;;4803250;29;20050;-87
2022/09/01 17:15:23;;;;;;;;;;;;;;;;;;;;;
2022/09/01 17:26:07;;;;;;;0.10;0.10;;;21.40;82.90;;;;;;4801132;24;19933;-86
2022/09/01 17:29:14;;;;;;;0.75;0.10;;;21.20;83.30;;;;;;4782629;29;20050;-84
2022/09/01 17:32:40;;;;;;;0.22;0.10;;;21.10;83.10;;;;;;4773931;30;20058;-85
2022/09/01 17:36:04;;;;;;;;;;;;;;;;;;;;;
2022/09/01 17:39:09;;;;;;;0.10;0.10;;;20.90;83.70;;;;;;4769328;24;20142;-85
2022/09/01 17:42:22;;;;;;;;;;;;;;;;;;;;;
2022/09/01 17:45:28;;;;;;;0.30;0.10;;;20.70;85.20;;;;;;4751766;29;20446;-83
2022/09/01 17:48:08;;;;;;;0.10;0.10;;;20.60;84.80;;;;;;4812087;29;20047;-83
2022/09/01 17:51:05;;;;;;;0.47;0.10;;;20.50;85.40;;;;;;4806280;29;20051;-83
2022/09/01 17:53:56;;;;;;;0.20;0.10;;;20.30;85.80;;;;;;4801372;29;20063;-82
2022/09/01 17:56:36;;;;;;;0.15;0.10;;;20.30;86.10;;;;;;4789823;29;20053;-83
2022/09/01 18:02:57;;;;;;;0.30;0.20;;;20.10;88.10;;;;;;4804056;29;20050;-83
2022/09/01 18:06:05;;;;;;;1.13;0.22;;;19.90;90.20;;;;;;4816656;29;20089;-83
2022/09/01 18:08:48;;;;;;;1.00;0.28;;;19.90;90.90;;;;;;4751273;30;20078;-83
2022/09/01 18:11:23;;;;;;;0.20;0.13;;;19.80;91.40;;;;;;4736867;30;20094;-83
2022/09/01 18:14:22;;;;;;;4.30;0.20;;;19.70;92.10;;;;;;4745525;30;20116;-84
2022/09/01 18:17:44;;;;;;;;;;;;;;;;;;;;;
2022/09/01 18:21:08;;;;;;;0.50;0.20;;;19.50;92.90;;;;;;4746009;30;20532;-83
2022/09/01 18:23:43;;;;;;;1.15;0.30;;;19.30;93.20;;;;;;4745575;30;20090;-83
2022/09/01 18:26:53;;;;;;;0.52;0.10;;;19.30;93.20;;;;;;4751413;30;20925;-82
2022/09/01 18:29:37;;;;;;;0.20;0.10;;;19.20;93.80;;;;;;4751327;30;20075;-83
2022/09/01 18:32:29;;;;;;;0.20;0.20;;;19.10;93.80;;;;;;4748425;30;20058;-84
2022/09/01 18:35:31;;;;;;;0.17;0.15;;;19.10;94.50;;;;;;4750086;30;20080;-83
2022/09/01 18:38:30;;;;;;;0.68;0.20;;;19.00;94.30;;;;;;4750057;30;20064;-83
2022/09/01 18:44:54;;;;;;;1.65;0.20;;;18.80;95.40;;;;;;4754658;29;20414;-84
2022/09/01 18:47:41;;;;;;;2.95;0.30;;;18.70;96.10;;;;;;4801295;29;20378;-83
2022/09/01 18:50:28;;;;;;;0.17;0.10;;;18.60;96.00;;;;;;4806527;29;20413;-83
2022/09/01 18:53:11;;;;;;;1.65;0.10;;;18.50;96.80;;;;;;4804901;29;20413;-82
2022/09/01 18:55:59;;;;;;;0.40;0.10;;;18.40;96.60;;;;;;4806340;29;20035;-83
2022/09/01 18:58:52;;;;;;;0.50;0.20;;;18.40;97.30;;;;;;4796311;29;20046;-84
2022/09/01 19:02:05;;;;;;;0.30;0.20;;;18.30;98.10;;;;;;4799045;29;20526;-83